Time;durP1;ratioP1;P1;durP2;ratioP2;P2;SDS_P1;SDS_P2;PMS_P1;PMS_P2;Temp;Humidity;BMP_temperature;BMP_pressure;BME280_temperature;BME280_humidity;BME280_pressure;Samples;Min_cycle;Max_cycle;Signal;HPM_P1;HPM_P2
2020/12/26 00:01:26;;;;;;;0.10;0.10;;;1.20;99.90;;;;;;4975548;28;20487;-92
2020/12/26 00:03:52;;;;;;;0.17;0.17;;;1.20;99.90;;;;;;4977036;28;20122;-93
2020/12/26 00:06:19;;;;;;;0.10;0.10;;;1.10;99.90;;;;;;4976979;28;20086;-93
2020/12/26 00:08:46;;;;;;;0.13;0.13;;;1.10;99.90;;;;;;4976889;28;20031;-93
2020/12/26 00:11:13;;;;;;;0.20;0.20;;;1.00;99.90;;;;;;4977293;28;20117;-93
2020/12/26 00:13:39;;;;;;;0.10;0.10;;;1.10;99.90;;;;;;4977175;28;20129;-93
2020/12/26 00:16:06;;;;;;;0.52;0.52;;;1.10;99.90;;;;;;4976956;28;20538;-93
2020/12/26 00:18:33;;;;;;;0.10;0.10;;;1.00;99.90;;;;;;4976930;28;20031;-93
2020/12/26 00:21:00;;;;;;;0.40;0.40;;;1.00;99.90;;;;;;4976918;28;20027;-93
2020/12/26 00:23:26;;;;;;;0.17;0.17;;;1.00;99.90;;;;;;4976204;28;20159;-91
2020/12/26 00:25:52;;;;;;;0.45;0.45;;;1.00;99.90;;;;;;4976832;28;20124;-91
2020/12/26 00:28:18;;;;;;;0.10;0.10;;;0.90;99.90;;;;;;4976687;28;20027;-92
2020/12/26 00:30:44;;;;;;;0.10;0.10;;;0.90;99.90;;;;;;4976881;28;20022;-93
2020/12/26 00:33:10;;;;;;;0.15;0.15;;;1.00;99.90;;;;;;4976671;28;20435;-92
2020/12/26 00:35:35;;;;;;;0.10;0.10;;;1.00;99.90;;;;;;4976433;28;20031;-90
2020/12/26 00:38:01;;;;;;;0.10;0.10;;;1.00;99.90;;;;;;4976520;28;20026;-92
2020/12/26 00:40:27;;;;;;;1.50;1.40;;;1.00;99.90;;;;;;4976341;28;20026;-91
2020/12/26 00:42:53;;;;;;;0.10;0.10;;;0.90;99.90;;;;;;4976129;28;20054;-90
2020/12/26 00:45:18;;;;;;;0.10;0.10;;;0.80;99.90;;;;;;4976323;28;20018;-91
2020/12/26 00:47:44;;;;;;;0.13;0.13;;;0.80;99.90;;;;;;4976235;28;20030;-91
2020/12/26 00:50:10;;;;;;;0.68;0.68;;;0.70;99.90;;;;;;4976114;28;20057;-90
2020/12/26 00:52:36;;;;;;;0.68;0.68;;;0.60;1.00;;;;;;4971379;28;20022;-89
2020/12/26 00:55:02;;;;;;;0.20;0.20;;;0.70;1.00;;;;;;4956340;28;20435;-89
2020/12/26 00:57:28;;;;;;;0.10;0.10;;;0.70;1.00;;;;;;4956032;28;20026;-90
2020/12/26 00:59:54;;;;;;;0.10;0.10;;;0.60;1.00;;;;;;4973441;28;20053;-90
2020/12/26 01:02:19;;;;;;;0.38;0.38;;;0.60;1.00;;;;;;4956369;28;20065;-91
2020/12/26 01:04:46;;;;;;;0.10;0.10;;;0.70;1.00;;;;;;4973704;28;20019;-90
2020/12/26 01:07:12;;;;;;;0.10;0.10;;;0.70;1.00;;;;;;4955990;28;20133;-91
2020/12/26 01:09:38;;;;;;;0.30;0.30;;;0.60;1.00;;;;;;4958912;28;20023;-92
2020/12/26 01:12:04;;;;;;;0.28;0.28;;;0.70;1.00;;;;;;4958466;28;20031;-91
2020/12/26 01:14:30;;;;;;;0.10;0.10;;;0.80;1.00;;;;;;4958418;28;20027;-90
2020/12/26 01:16:56;;;;;;;0.20;0.20;;;0.70;1.00;;;;;;4957999;28;20031;-90
2020/12/26 01:19:21;;;;;;;0.50;0.50;;;0.80;1.00;;;;;;4962621;28;20038;-90
2020/12/26 01:21:51;;;;;;;0.55;0.55;;;0.70;1.00;;;;;;4958199;28;20026;-90
2020/12/26 01:24:21;;;;;;;0.73;0.73;;;0.60;1.00;;;;;;4957918;28;20510;-90
2020/12/26 01:26:48;;;;;;;1.80;1.67;;;0.60;1.00;;;;;;4959414;28;20042;-90
2020/12/26 01:29:15;;;;;;;0.57;0.57;;;0.70;1.00;;;;;;4959423;28;20126;-89
2020/12/26 01:31:41;;;;;;;0.10;0.10;;;0.60;1.00;;;;;;4975764;28;20063;-89
2020/12/26 01:34:07;;;;;;;0.35;0.35;;;0.60;1.00;;;;;;4961323;28;20072;-90
2020/12/26 01:36:33;;;;;;;0.47;0.47;;;0.70;1.00;;;;;;4982675;28;20026;-89
2020/12/26 01:38:59;;;;;;;0.20;0.20;;;0.70;1.00;;;;;;4975471;28;20038;-90
2020/12/26 01:41:25;;;;;;;3.72;0.82;;;0.70;1.00;;;;;;4965487;28;20508;-90
2020/12/26 01:43:54;;;;;;;0.38;0.38;;;0.70;1.00;;;;;;4954925;28;20030;-90
2020/12/26 01:46:21;;;;;;;0.20;0.20;;;0.60;1.00;;;;;;4958310;28;20029;-90
2020/12/26 01:48:47;;;;;;;0.17;0.17;;;0.60;1.00;;;;;;4970575;28;20033;-89
2020/12/26 01:51:12;;;;;;;0.55;0.55;;;0.70;1.00;;;;;;4969845;28;20031;-89
2020/12/26 01:53:39;;;;;;;0.65;0.65;;;0.60;1.00;;;;;;4956778;28;20027;-88
2020/12/26 01:56:05;;;;;;;0.70;0.70;;;0.70;1.00;;;;;;4947934;28;20035;-89
2020/12/26 01:58:35;;;;;;;2.50;0.65;;;0.60;1.00;;;;;;4985016;28;20038;-89
2020/12/26 02:01:01;;;;;;;3.80;0.95;;;0.70;1.00;;;;;;4962718;28;20025;-90
2020/12/26 02:03:26;;;;;;;0.80;0.80;;;0.70;1.00;;;;;;4958215;28;20508;-89
2020/12/26 02:05:54;;;;;;;1.90;1.80;;;0.70;1.00;;;;;;4955672;28;20046;-87
2020/12/26 02:08:20;;;;;;;0.63;0.63;;;0.60;1.00;;;;;;4976822;28;20034;-89
2020/12/26 02:10:46;;;;;;;0.67;0.67;;;0.60;1.00;;;;;;4966794;28;20499;-89
2020/12/26 02:13:12;;;;;;;1.67;1.58;;;0.60;1.00;;;;;;4956584;28;20086;-89
2020/12/26 02:15:37;;;;;;;1.05;1.05;;;0.60;1.00;;;;;;4957326;28;20039;-89
2020/12/26 02:18:03;;;;;;;0.10;0.10;;;0.60;1.00;;;;;;4958768;28;20121;-89
2020/12/26 02:20:29;;;;;;;0.50;0.50;;;0.60;1.00;;;;;;4965250;28;20547;-89
2020/12/26 02:22:55;;;;;;;0.47;0.47;;;0.60;1.00;;;;;;4973803;28;20089;-89
2020/12/26 02:25:20;;;;;;;4.22;1.00;;;0.60;1.00;;;;;;4953920;29;20090;-90
2020/12/26 02:27:46;;;;;;;0.10;0.10;;;0.50;1.00;;;;;;4961538;28;20019;-90
2020/12/26 02:30:12;;;;;;;0.10;0.10;;;0.70;1.00;;;;;;4973768;28;20030;-91
2020/12/26 02:32:37;;;;;;;0.28;0.28;;;0.60;1.00;;;;;;4977860;28;20030;-91
2020/12/26 02:35:04;;;;;;;0.43;0.38;;;0.50;1.00;;;;;;4976654;28;20030;-89
2020/12/26 02:37:30;;;;;;;0.75;0.75;;;0.70;1.00;;;;;;4957688;28;20023;-89
2020/12/26 02:39:56;;;;;;;0.65;0.65;;;0.60;1.00;;;;;;4955308;28;20107;-89
2020/12/26 02:42:22;;;;;;;0.45;0.45;;;0.50;1.00;;;;;;4954628;28;20556;-90
2020/12/26 02:44:48;;;;;;;0.28;0.28;;;0.50;8.10;;;;;;4955974;28;20767;-89
2020/12/26 02:47:13;;;;;;;0.40;0.40;;;0.50;5.70;;;;;;4972230;28;20027;-89
2020/12/26 02:49:39;;;;;;;1.65;0.93;;;0.40;6.40;;;;;;4975611;28;20030;-89
2020/12/26 02:52:05;;;;;;;0.10;0.10;;;0.40;35.70;;;;;;4971000;28;20093;-88
2020/12/26 02:54:30;;;;;;;1.00;0.95;;;0.40;27.30;;;;;;4971720;28;20093;-89
2020/12/26 02:56:56;;;;;;;0.20;0.20;;;0.30;63.00;;;;;;4974154;28;20105;-89
2020/12/26 02:59:22;;;;;;;0.30;0.30;;;0.40;44.50;;;;;;4953971;28;20252;-88
2020/12/26 03:01:48;;;;;;;0.10;0.10;;;0.50;22.60;;;;;;4972351;28;20031;-88
2020/12/26 03:04:13;;;;;;;0.10;0.10;;;0.60;1.00;;;;;;4954330;28;20404;-88
2020/12/26 03:06:39;;;;;;;0.17;0.17;;;0.60;1.00;;;;;;4977967;28;20694;-88
2020/12/26 03:09:06;;;;;;;0.10;0.10;;;0.70;1.00;;;;;;4971377;28;20150;-89
2020/12/26 03:11:32;;;;;;;0.10;0.10;;;0.60;1.00;;;;;;4971631;28;20114;-89
2020/12/26 03:13:57;;;;;;;0.45;0.45;;;0.50;1.00;;;;;;4955081;28;20126;-88
2020/12/26 03:16:23;;;;;;;0.30;0.30;;;0.40;7.80;;;;;;4975629;28;20058;-90
2020/12/26 03:18:49;;;;;;;0.40;0.40;;;0.30;23.00;;;;;;4982000;28;20031;-89
2020/12/26 03:21:15;;;;;;;0.10;0.10;;;0.30;21.30;;;;;;4957303;28;20084;-89
2020/12/26 03:23:41;;;;;;;0.13;0.13;;;0.20;24.50;;;;;;4958106;28;20031;-89
2020/12/26 03:26:07;;;;;;;0.52;0.52;;;0.30;3.00;;;;;;4950485;28;20107;-88
2020/12/26 03:28:33;;;;;;;0.10;0.10;;;0.30;1.00;;;;;;4967979;28;20057;-88
2020/12/26 03:30:59;;;;;;;0.68;0.68;;;0.20;1.00;;;;;;4953327;28;20031;-88
2020/12/26 03:33:24;;;;;;;0.20;0.20;;;0.20;27.10;;;;;;4953095;28;20027;-89
2020/12/26 03:35:50;;;;;;;2.30;1.17;;;0.30;1.00;;;;;;4953606;28;20043;-88
2020/12/26 03:38:16;;;;;;;0.10;0.10;;;0.10;5.10;;;;;;4970963;28;20074;-88
2020/12/26 03:40:42;;;;;;;0.30;0.30;;;-0.10;52.60;;;;;;4953939;28;20030;-88
2020/12/26 03:43:07;;;;;;;0.20;0.20;;;-0.10;99.90;;;;;;4970227;28;20037;-88
2020/12/26 03:45:33;;;;;;;0.10;0.10;;;0.00;99.90;;;;;;4973120;28;20062;-89
2020/12/26 03:47:59;;;;;;;2.83;0.68;;;-0.10;99.90;;;;;;4955612;28;20555;-89
2020/12/26 03:50:24;;;;;;;0.22;0.22;;;-0.10;99.90;;;;;;4958919;28;20045;-89
2020/12/26 03:52:50;;;;;;;0.10;0.10;;;-0.10;99.90;;;;;;4962635;28;20141;-89
2020/12/26 03:55:16;;;;;;;0.20;0.20;;;-0.10;99.90;;;;;;4964749;28;20448;-89
2020/12/26 03:57:42;;;;;;;0.10;0.10;;;0.00;99.90;;;;;;4954057;28;20219;-89
2020/12/26 04:00:07;;;;;;;0.20;0.20;;;-0.10;99.90;;;;;;4951480;28;20055;-89
2020/12/26 04:02:33;;;;;;;1.55;1.45;;;0.00;99.90;;;;;;4979471;28;20089;-89
2020/12/26 04:04:59;;;;;;;0.20;0.20;;;0.00;99.90;;;;;;4971454;28;20038;-89
2020/12/26 04:07:25;;;;;;;0.10;0.10;;;0.00;99.90;;;;;;4961062;28;20031;-88
2020/12/26 04:09:51;;;;;;;1.10;0.77;;;0.10;99.90;;;;;;4975605;28;20403;-88
2020/12/26 04:12:16;;;;;;;0.40;0.40;;;0.10;99.90;;;;;;4958368;28;20037;-88
2020/12/26 04:14:42;;;;;;;7.38;1.92;;;0.00;99.90;;;;;;4960781;28;20420;-89
2020/12/26 04:17:08;;;;;;;0.17;0.17;;;0.00;99.90;;;;;;4955353;28;20056;-89
2020/12/26 04:19:33;;;;;;;0.10;0.10;;;0.00;99.90;;;;;;4972739;28;20038;-89
2020/12/26 04:21:59;;;;;;;0.10;0.10;;;0.00;99.90;;;;;;4956327;28;20023;-90
2020/12/26 04:24:25;;;;;;;0.13;0.13;;;0.00;99.90;;;;;;4956331;28;20114;-90
2020/12/26 04:26:51;;;;;;;0.60;0.60;;;-0.10;99.90;;;;;;4978360;28;20011;-91
2020/12/26 04:29:21;;;;;;;0.55;0.55;;;-0.20;99.90;;;;;;4957200;28;20031;-90
2020/12/26 04:31:48;;;;;;;0.10;0.10;;;0.20;99.90;;;;;;4957003;28;20496;-89
2020/12/26 04:34:14;;;;;;;0.60;0.60;;;0.40;99.90;;;;;;4957026;28;20117;-90
2020/12/26 04:36:40;;;;;;;0.20;0.20;;;0.50;99.90;;;;;;4956509;28;20572;-90
2020/12/26 04:39:05;;;;;;;0.20;0.20;;;0.50;91.60;;;;;;4956265;28;20456;-90
2020/12/26 04:41:32;;;;;;;0.50;0.50;;;0.50;93.40;;;;;;4955591;28;20019;-89
2020/12/26 04:44:00;;;;;;;0.20;0.20;;;0.60;99.90;;;;;;4958025;28;20118;-88
2020/12/26 04:46:27;;;;;;;0.15;0.15;;;0.60;99.90;;;;;;4965194;28;20020;-89
2020/12/26 04:49:10;;;;;;;0.30;0.30;;;0.60;92.60;;;;;;4959198;28;20030;-88
2020/12/26 04:51:36;;;;;;;0.20;0.20;;;0.70;45.50;;;;;;4959907;28;20022;-89
2020/12/26 04:54:11;;;;;;;0.10;0.10;;;0.60;65.00;;;;;;4959078;28;20073;-90
2020/12/26 04:56:43;;;;;;;2.45;1.58;;;0.60;97.10;;;;;;4961845;28;20026;-90
2020/12/26 04:59:10;;;;;;;0.10;0.10;;;0.50;99.90;;;;;;4978391;28;20034;-89
2020/12/26 05:01:40;;;;;;;;;;;0.50;99.90;;;;;;4963400;28;20019;-90
2020/12/26 05:04:06;;;;;;;0.20;0.20;;;0.30;99.90;;;;;;4976124;28;19914;-88
2020/12/26 05:06:36;;;;;;;0.20;0.20;;;0.20;99.90;;;;;;4958658;28;20049;-89
2020/12/26 05:09:02;;;;;;;0.50;0.50;;;0.20;99.90;;;;;;4959440;28;20046;-89
2020/12/26 05:11:28;;;;;;;0.20;0.20;;;0.20;99.90;;;;;;4957296;28;20027;-89
2020/12/26 05:13:54;;;;;;;0.10;0.10;;;0.40;99.90;;;;;;4957438;28;20031;-88
2020/12/26 05:16:19;;;;;;;0.10;0.10;;;0.30;99.90;;;;;;4961669;28;20030;-89
2020/12/26 05:18:49;;;;;;;0.13;0.13;;;0.30;99.90;;;;;;4958751;28;20030;-88
2020/12/26 05:21:24;;;;;;;0.40;0.40;;;0.30;99.90;;;;;;4978593;28;20039;-87
2020/12/26 05:24:06;;;;;;;0.47;0.47;;;0.10;99.90;;;;;;4979527;28;20105;-88
2020/12/26 05:26:41;;;;;;;0.10;0.10;;;0.10;99.90;;;;;;4981289;28;20023;-89
2020/12/26 05:29:08;;;;;;;0.10;0.10;;;0.10;99.90;;;;;;4945841;28;20034;-88
2020/12/26 05:31:59;;;;;;;0.20;0.20;;;0.00;99.90;;;;;;4966927;28;20034;-88
2020/12/26 05:34:38;;;;;;;0.47;0.47;;;0.00;99.90;;;;;;4975625;28;20121;-89
2020/12/26 05:37:06;;;;;;;0.10;0.10;;;0.00;1.00;;;;;;4958975;28;20086;-89
2020/12/26 05:39:33;;;;;;;0.10;0.10;;;0.10;1.00;;;;;;4974220;28;20101;-89
2020/12/26 05:42:00;;;;;;;0.20;0.20;;;0.00;1.00;;;;;;4973114;28;20392;-89
2020/12/26 05:44:30;;;;;;;0.20;0.20;;;0.10;1.00;;;;;;4956155;28;20109;-89
2020/12/26 05:46:59;;;;;;;0.10;0.10;;;0.10;1.00;;;;;;4955492;28;20046;-89
2020/12/26 05:49:24;;;;;;;0.10;0.10;;;0.40;99.90;;;;;;4979596;28;20045;-89
2020/12/26 05:51:53;;;;;;;0.30;0.30;;;0.40;99.90;;;;;;4956765;28;20022;-90
2020/12/26 05:54:19;;;;;;;0.10;0.10;;;0.50;99.90;;;;;;4955224;28;20041;-88
2020/12/26 05:56:45;;;;;;;0.17;0.17;;;0.50;73.60;;;;;;4955769;28;20027;-89
2020/12/26 05:59:26;;;;;;;0.30;0.30;;;0.60;1.00;;;;;;4954608;28;20030;-88
2020/12/26 06:01:55;;;;;;;0.10;0.10;;;0.70;1.00;;;;;;4976035;28;20019;-88
2020/12/26 06:04:21;;;;;;;0.20;0.20;;;0.70;1.00;;;;;;4969392;28;20045;-88
2020/12/26 06:06:52;;;;;;;0.20;0.20;;;0.70;1.00;;;;;;4974185;28;20672;-88
2020/12/26 06:09:21;;;;;;;0.10;0.10;;;0.50;1.00;;;;;;4961469;28;20113;-88
2020/12/26 06:11:49;;;;;;;0.20;0.20;;;0.50;1.00;;;;;;4967291;28;20043;-88
2020/12/26 06:14:19;;;;;;;0.10;0.10;;;0.40;1.00;;;;;;4973158;28;20026;-89
2020/12/26 06:16:50;;;;;;;0.52;0.52;;;0.20;42.00;;;;;;4957496;28;20484;-89
2020/12/26 06:19:18;;;;;;;0.20;0.20;;;0.10;47.60;;;;;;4960920;28;20031;-91
2020/12/26 06:21:46;;;;;;;0.10;0.10;;;0.10;96.30;;;;;;4983966;28;20038;-91
2020/12/26 06:24:13;;;;;;;0.10;0.10;;;0.00;99.90;;;;;;4968426;28;20515;-89
2020/12/26 06:26:46;;;;;;;0.10;0.10;;;-0.20;99.90;;;;;;4974321;28;20387;-90
2020/12/26 06:29:16;;;;;;;0.10;0.10;;;-0.20;99.90;;;;;;4956618;28;20027;-88
2020/12/26 06:31:47;;;;;;;0.10;0.10;;;-0.30;99.90;;;;;;4956822;28;20043;-89
2020/12/26 06:34:17;;;;;;;0.10;0.10;;;-0.30;1.00;;;;;;4960917;28;20129;-89
2020/12/26 06:36:44;;;;;;;0.10;0.10;;;-0.40;1.00;;;;;;4955920;28;20122;-90
2020/12/26 06:39:29;;;;;;;0.10;0.10;;;-0.40;99.90;;;;;;4956402;28;20109;-89
2020/12/26 06:42:17;;;;;;;0.20;0.20;;;-0.20;15.80;;;;;;4957919;28;20034;-88
2020/12/26 06:44:47;;;;;;;0.22;0.22;;;-0.20;99.90;;;;;;4955602;28;20030;-88
2020/12/26 06:47:36;;;;;;;0.10;0.10;;;-0.30;99.90;;;;;;4972828;28;20105;-89
2020/12/26 06:50:21;;;;;;;0.40;0.40;;;-0.40;1.00;;;;;;4964805;28;20776;-89
2020/12/26 06:52:47;;;;;;;0.35;0.35;;;-0.50;67.70;;;;;;4974918;28;20035;-88
2020/12/26 06:55:42;;;;;;;1.55;1.13;;;-0.50;99.90;;;;;;4958277;28;20456;-89
2020/12/26 06:58:11;;;;;;;1.98;1.30;;;-0.50;99.90;;;;;;4968945;28;20038;-92
2020/12/26 07:00:38;;;;;;;0.10;0.10;;;-0.60;99.90;;;;;;4958067;28;20114;-90
2020/12/26 07:03:21;;;;;;;0.40;0.40;;;-0.70;1.00;;;;;;4952451;28;20035;-87
2020/12/26 07:05:47;;;;;;;0.43;0.43;;;-0.70;99.90;;;;;;4974616;28;20034;-89
2020/12/26 07:08:50;;;;;;;1.05;1.00;;;-0.70;1.00;;;;;;4952427;28;20034;-88
2020/12/26 07:11:23;;;;;;;2.13;2.00;;;-0.70;99.90;;;;;;4948379;28;20026;-88
2020/12/26 07:13:50;;;;;;;0.20;0.20;;;-0.70;99.90;;;;;;4970420;28;20097;-88
2020/12/26 07:16:41;;;;;;;0.55;0.55;;;-0.70;99.90;;;;;;4952820;28;20033;-88
2020/12/26 07:19:27;;;;;;;0.13;0.13;;;-0.70;99.90;;;;;;4946576;28;20065;-87
2020/12/26 07:22:01;;;;;;;0.57;0.57;;;-0.80;99.90;;;;;;4977237;28;20631;-88
2020/12/26 07:24:31;;;;;;;0.10;0.10;;;-0.90;99.90;;;;;;4979734;28;20028;-88
2020/12/26 07:27:23;;;;;;;0.40;0.40;;;-1.00;99.90;;;;;;4954862;28;20676;-88
2020/12/26 07:29:57;;;;;;;0.40;0.40;;;-1.00;30.00;;;;;;4969958;28;20022;-88
2020/12/26 07:32:35;;;;;;;0.20;0.20;;;-1.10;96.40;;;;;;4957033;28;20031;-87
2020/12/26 07:35:14;;;;;;;0.20;0.20;;;-1.20;1.00;;;;;;4971911;28;20114;-87
2020/12/26 07:37:41;;;;;;;0.10;0.10;;;-1.20;99.90;;;;;;4969734;28;20062;-87
2020/12/26 07:40:08;;;;;;;0.38;0.38;;;-1.20;99.90;;;;;;4971630;28;20034;-86
2020/12/26 07:42:35;;;;;;;0.10;0.10;;;-1.30;99.90;;;;;;4978605;28;20031;-87
2020/12/26 07:45:12;;;;;;;0.90;0.90;;;-1.30;99.90;;;;;;4959587;28;20035;-87
2020/12/26 07:47:47;;;;;;;0.10;0.10;;;-1.30;1.00;;;;;;4942462;28;20027;-87
2020/12/26 07:50:16;;;;;;;0.20;0.20;;;-1.30;99.90;;;;;;4986666;28;20030;-87
2020/12/26 07:52:51;;;;;;;0.30;0.30;;;-1.20;1.00;;;;;;4957399;28;20035;-88
2020/12/26 07:55:17;;;;;;;0.10;0.10;;;-1.20;1.00;;;;;;4964212;28;20026;-88
2020/12/26 07:57:45;;;;;;;0.22;0.22;;;-1.00;99.90;;;;;;4971647;28;20046;-87
2020/12/26 08:00:26;;;;;;;0.35;0.35;;;-0.50;99.90;;;;;;4979572;28;20042;-88
2020/12/26 08:02:54;;;;;;;0.20;0.20;;;0.70;98.30;;;;;;4980675;28;20049;-86
2020/12/26 08:05:30;;;;;;;0.10;0.10;;;0.50;1.00;;;;;;4984840;28;20014;-85
2020/12/26 08:07:57;;;;;;;0.10;0.10;;;1.50;1.00;;;;;;4961927;28;20030;-87
2020/12/26 08:10:25;;;;;;;0.20;0.20;;;2.80;99.90;;;;;;4970687;28;20759;-87
2020/12/26 08:12:58;;;;;;;0.40;0.40;;;3.30;99.90;;;;;;4970858;28;20803;-87
2020/12/26 08:15:29;;;;;;;0.10;0.10;;;3.80;99.90;;;;;;4981851;28;20031;-88
2020/12/26 08:17:59;;;;;;;0.10;0.10;;;4.00;99.90;;;;;;4979063;28;20031;-86
2020/12/26 08:20:27;;;;;;;2.28;1.52;;;4.10;99.90;;;;;;4961959;28;20026;-87
2020/12/26 08:22:54;;;;;;;0.10;0.10;;;4.50;99.90;;;;;;4958603;28;20803;-87
2020/12/26 08:25:24;;;;;;;20.58;2.10;;;4.60;99.90;;;;;;4969125;28;20501;-86
2020/12/26 08:27:51;;;;;;;0.68;0.68;;;3.70;99.90;;;;;;4973426;28;20512;-87
2020/12/26 08:30:27;;;;;;;0.98;0.98;;;5.40;99.90;;;;;;4955730;28;20023;-88
2020/12/26 08:33:23;;;;;;;1.90;1.77;;;5.90;99.90;;;;;;4955742;28;20671;-87
2020/12/26 08:36:13;;;;;;;3.47;1.20;;;6.60;99.90;;;;;;4890762;29;20053;-88
2020/12/26 08:38:56;;;;;;;0.10;0.10;;;7.80;99.90;;;;;;4896110;29;20628;-89
2020/12/26 08:41:24;;;;;;;0.43;0.43;;;8.40;99.90;;;;;;4903356;29;20040;-89
2020/12/26 08:43:51;;;;;;;0.68;0.68;;;9.60;99.90;;;;;;4896361;29;20044;-90
2020/12/26 08:46:28;;;;;;;0.10;0.10;;;9.60;99.90;;;;;;4912096;29;20526;-88
2020/12/26 08:48:57;;;;;;;;;;;9.30;99.90;;;;;;4903974;29;20518;-89
2020/12/26 08:51:26;;;;;;;0.68;0.68;;;9.90;99.90;;;;;;4903123;29;19926;-90
2020/12/26 08:53:56;;;;;;;3.83;0.90;;;10.20;99.90;;;;;;4884341;29;20147;-89
2020/12/26 08:56:35;;;;;;;2.50;1.75;;;8.60;99.90;;;;;;4905319;29;20593;-88
2020/12/26 08:59:02;;;;;;;0.43;0.43;;;8.00;99.90;;;;;;4884951;29;20509;-90
2020/12/26 09:01:28;;;;;;;;;;;7.50;99.90;;;;;;4907585;29;20226;-88
2020/12/26 09:03:58;;;;;;;3.03;1.45;;;7.50;99.90;;;;;;4893747;29;19911;-89
2020/12/26 09:06:32;;;;;;;0.50;0.50;;;6.90;99.90;;;;;;4898758;29;20059;-88
2020/12/26 09:08:58;;;;;;;0.15;0.15;;;5.90;99.90;;;;;;4880704;29;20033;-90
2020/12/26 09:11:30;;;;;;;0.60;0.60;;;4.60;99.90;;;;;;4891368;29;20020;-89
2020/12/26 09:13:57;;;;;;;0.17;0.17;;;4.30;99.90;;;;;;4954511;28;20041;-88
2020/12/26 09:16:28;;;;;;;0.10;0.10;;;4.20;99.90;;;;;;4985327;28;20045;-89
2020/12/26 09:19:00;;;;;;;0.30;0.30;;;3.80;99.90;;;;;;4985527;28;20085;-88
2020/12/26 09:21:27;;;;;;;1.75;1.60;;;4.50;99.90;;;;;;4979646;28;20065;-89
2020/12/26 09:23:56;;;;;;;0.60;0.60;;;4.80;99.90;;;;;;4972532;28;20096;-89
2020/12/26 09:26:27;;;;;;;0.73;0.73;;;5.20;99.90;;;;;;4973146;28;20039;-89
2020/12/26 09:28:55;;;;;;;0.25;0.25;;;4.70;99.90;;;;;;4973967;28;20063;-88
2020/12/26 09:31:30;;;;;;;0.25;0.25;;;3.90;99.90;;;;;;4964694;28;20400;-89
2020/12/26 09:33:58;;;;;;;0.15;0.15;;;4.00;99.90;;;;;;4968351;28;20042;-88
2020/12/26 09:36:25;;;;;;;0.03;0.03;;;3.60;99.90;;;;;;4943571;28;20023;-89
2020/12/26 09:38:53;;;;;;;0.47;0.47;;;3.50;99.90;;;;;;4964179;28;20166;-88
2020/12/26 09:41:26;;;;;;;0.90;0.60;;;3.20;99.90;;;;;;4962352;28;20475;-88
2020/12/26 09:43:54;;;;;;;0.10;0.10;;;2.90;99.90;;;;;;4954218;28;20039;-89
2020/12/26 09:46:21;;;;;;;0.10;0.10;;;2.90;99.90;;;;;;4979651;28;20026;-88
2020/12/26 09:48:48;;;;;;;0.95;0.95;;;3.10;99.90;;;;;;4975481;28;20034;-90
2020/12/26 09:51:21;;;;;;;0.52;0.47;;;3.00;99.90;;;;;;4972425;28;20055;-89
2020/12/26 09:53:47;;;;;;;1.60;1.50;;;3.40;99.90;;;;;;4953427;28;20077;-88
2020/12/26 09:56:14;;;;;;;0.20;0.20;;;2.90;99.90;;;;;;4961439;28;20114;-87
2020/12/26 09:58:42;;;;;;;4.45;1.33;;;3.00;99.90;;;;;;4974444;28;20043;-87
2020/12/26 10:01:11;;;;;;;0.10;0.10;;;3.40;99.90;;;;;;4972832;28;20038;-88
2020/12/26 10:03:36;;;;;;;0.25;0.25;;;3.50;99.90;;;;;;4973415;28;20039;-88
2020/12/26 10:06:02;;;;;;;0.52;0.52;;;3.60;99.90;;;;;;4981791;28;20058;-88
2020/12/26 10:08:29;;;;;;;0.47;0.47;;;3.20;99.90;;;;;;4971386;28;20025;-88
2020/12/26 10:10:55;;;;;;;;;;;3.00;99.90;;;;;;4972006;28;20023;-88
2020/12/26 10:13:21;;;;;;;0.10;0.10;;;3.10;99.90;;;;;;4970991;28;20299;-88
2020/12/26 10:15:47;;;;;;;0.38;0.38;;;3.10;99.90;;;;;;4971393;28;20500;-88
2020/12/26 10:18:13;;;;;;;0.57;0.57;;;2.80;99.90;;;;;;4971181;28;20191;-88
2020/12/26 10:20:38;;;;;;;1.08;0.55;;;2.90;99.90;;;;;;4954013;28;20122;-88
2020/12/26 10:23:04;;;;;;;0.50;0.50;;;2.80;99.90;;;;;;4953522;28;20065;-88
2020/12/26 10:25:30;;;;;;;0.25;0.25;;;2.90;99.90;;;;;;4971292;28;20033;-88
2020/12/26 10:27:56;;;;;;;0.20;0.20;;;2.90;99.90;;;;;;4971654;28;20497;-88
2020/12/26 10:30:21;;;;;;;0.65;0.65;;;3.30;99.90;;;;;;4949945;28;20031;-89
2020/12/26 10:32:47;;;;;;;0.28;0.28;;;3.50;99.90;;;;;;4961548;28;20098;-88
2020/12/26 10:35:14;;;;;;;0.85;0.85;;;3.70;99.90;;;;;;4970754;28;20040;-88
2020/12/26 10:37:39;;;;;;;0.20;0.20;;;3.90;99.90;;;;;;4971417;28;20023;-88
2020/12/26 10:40:06;;;;;;;0.20;0.20;;;3.90;99.90;;;;;;4970155;28;20046;-88
2020/12/26 10:42:32;;;;;;;0.40;0.40;;;3.60;99.90;;;;;;4957665;28;20566;-89
2020/12/26 10:44:58;;;;;;;0.15;0.15;;;3.60;99.90;;;;;;4953608;28;20035;-88
2020/12/26 10:47:24;;;;;;;1.63;1.52;;;4.10;99.90;;;;;;4970719;28;20023;-89
2020/12/26 10:49:50;;;;;;;2.08;0.73;;;4.10;99.90;;;;;;4970621;28;20027;-88
2020/12/26 10:52:15;;;;;;;0.10;0.10;;;3.60;99.90;;;;;;4952726;28;20171;-89
2020/12/26 10:54:41;;;;;;;0.47;0.47;;;3.80;99.90;;;;;;4970769;28;20062;-88
2020/12/26 10:57:07;;;;;;;0.10;0.10;;;4.20;99.90;;;;;;4953399;28;20023;-89
2020/12/26 10:59:33;;;;;;;0.00;0.00;;;4.00;99.90;;;;;;4952900;28;20034;-88
2020/12/26 11:01:59;;;;;;;0.10;0.10;;;3.70;99.90;;;;;;4953293;28;20034;-88
2020/12/26 11:04:24;;;;;;;0.10;0.10;;;3.60;99.90;;;;;;4952609;28;20049;-88
2020/12/26 11:06:50;;;;;;;0.57;0.57;;;3.70;99.90;;;;;;4970429;28;20046;-89
2020/12/26 11:09:17;;;;;;;0.10;0.10;;;3.50;99.90;;;;;;4953353;28;20050;-89
2020/12/26 11:11:47;;;;;;;0.05;0.05;;;3.90;99.90;;;;;;4970644;28;20620;-87
2020/12/26 11:14:13;;;;;;;0.10;0.10;;;3.80;99.90;;;;;;4970965;28;20019;-88
2020/12/26 11:16:38;;;;;;;0.10;0.10;;;4.30;99.90;;;;;;4953122;28;20035;-88
2020/12/26 11:19:04;;;;;;;0.25;0.25;;;5.10;99.90;;;;;;4970441;28;20030;-88
2020/12/26 11:21:30;;;;;;;0.10;0.10;;;4.80;99.90;;;;;;4953361;28;20035;-88
2020/12/26 11:23:56;;;;;;;0.95;0.95;;;5.40;99.90;;;;;;4952840;28;20110;-88
2020/12/26 11:26:21;;;;;;;0.17;0.17;;;5.80;99.90;;;;;;4970429;28;20082;-88
2020/12/26 11:28:47;;;;;;;1.45;0.52;;;6.30;99.90;;;;;;4970142;28;20027;-88
2020/12/26 11:31:23;;;;;;;0.10;0.10;;;5.90;99.90;;;;;;4970296;28;20043;-89
2020/12/26 11:33:49;;;;;;;0.23;0.23;;;6.60;99.90;;;;;;4952745;28;20039;-88
2020/12/26 11:36:26;;;;;;;0.17;0.17;;;7.30;99.90;;;;;;4960151;28;20037;-88
2020/12/26 11:38:52;;;;;;;0.10;0.10;;;6.50;99.90;;;;;;4967790;28;20035;-88
2020/12/26 11:41:20;;;;;;;0.30;0.30;;;6.10;99.90;;;;;;4953108;28;20027;-88
2020/12/26 11:43:45;;;;;;;0.32;0.32;;;8.70;99.90;;;;;;4952402;28;20026;-89
2020/12/26 11:46:12;;;;;;;0.10;0.10;;;9.20;99.90;;;;;;4970211;28;20093;-89
2020/12/26 11:48:38;;;;;;;0.55;0.55;;;9.20;99.90;;;;;;4970212;28;20082;-89
2020/12/26 11:51:05;;;;;;;1.45;0.73;;;8.50;99.90;;;;;;4952588;28;20031;-89
2020/12/26 11:53:31;;;;;;;0.10;0.10;;;7.30;99.90;;;;;;4952494;28;20061;-89
2020/12/26 11:55:57;;;;;;;0.10;0.10;;;5.00;99.90;;;;;;4970071;28;20665;-89
2020/12/26 11:58:24;;;;;;;0.17;0.17;;;4.60;99.90;;;;;;4952809;28;20031;-89
2020/12/26 12:00:51;;;;;;;0.22;0.22;;;4.20;99.90;;;;;;4951932;28;20098;-89
2020/12/26 12:03:17;;;;;;;0.10;0.10;;;4.10;99.90;;;;;;4952794;28;20114;-89
2020/12/26 12:05:44;;;;;;;0.10;0.10;;;4.10;99.90;;;;;;4952583;28;20527;-89
2020/12/26 12:08:09;;;;;;;0.10;0.10;;;4.30;99.90;;;;;;4952360;28;20110;-89
2020/12/26 12:10:36;;;;;;;0.10;0.10;;;4.20;99.90;;;;;;4952710;28;20114;-89
2020/12/26 12:13:02;;;;;;;4.47;1.20;;;3.90;99.90;;;;;;4952321;28;20419;-89
2020/12/26 12:15:27;;;;;;;0.10;0.10;;;4.00;99.90;;;;;;4952644;28;20262;-89
2020/12/26 12:17:53;;;;;;;0.20;0.20;;;3.90;99.90;;;;;;4952341;28;20031;-88
2020/12/26 12:20:19;;;;;;;0.00;0.00;;;3.60;99.90;;;;;;4969891;28;20756;-89
2020/12/26 12:22:44;;;;;;;0.10;0.10;;;3.50;99.90;;;;;;4952530;28;20571;-89
2020/12/26 12:25:10;;;;;;;1.15;1.05;;;3.60;99.90;;;;;;4952274;28;20077;-89
2020/12/26 12:27:36;;;;;;;0.10;0.10;;;3.90;99.90;;;;;;4970046;28;20023;-89
2020/12/26 12:30:02;;;;;;;0.73;0.73;;;4.10;99.90;;;;;;4952425;28;20033;-89
2020/12/26 12:32:28;;;;;;;0.45;0.45;;;4.20;99.90;;;;;;4952063;28;20065;-88
2020/12/26 12:34:54;;;;;;;1.75;0.45;;;4.00;99.90;;;;;;4969739;28;20058;-89
2020/12/26 12:37:20;;;;;;;0.30;0.30;;;4.30;99.90;;;;;;4952218;28;20018;-88
2020/12/26 12:39:45;;;;;;;0.68;0.68;;;4.10;99.90;;;;;;4952085;28;20408;-88
2020/12/26 12:42:11;;;;;;;0.85;0.82;;;4.20;99.90;;;;;;4975010;28;20378;-90
2020/12/26 12:44:37;;;;;;;2.25;2.05;;;4.40;99.90;;;;;;4956749;28;20031;-95
2020/12/26 12:47:04;;;;;;;0.25;0.20;;;4.20;99.90;;;;;;4953511;28;20053;-91
2020/12/26 12:49:30;;;;;;;0.45;0.45;;;4.00;99.90;;;;;;4964267;28;20088;-94
2020/12/26 12:51:56;;;;;;;0.22;0.22;;;4.10;99.90;;;;;;4951764;28;20031;-93
2020/12/26 12:54:22;;;;;;;0.40;0.40;;;4.30;99.90;;;;;;4944402;28;20556;-91
2020/12/26 12:56:48;;;;;;;0.10;0.10;;;4.30;99.90;;;;;;4953378;28;20512;-90
2020/12/26 12:59:13;;;;;;;1.17;0.98;;;4.30;99.90;;;;;;4963943;28;20061;-92
2020/12/26 13:01:39;;;;;;;0.20;0.20;;;4.60;99.90;;;;;;4971794;28;20413;-91
2020/12/26 13:04:05;;;;;;;0.35;0.35;;;4.70;99.90;;;;;;4954214;28;20027;-92
2020/12/26 13:06:31;;;;;;;0.20;0.20;;;4.70;99.90;;;;;;4960292;28;20049;-93